sensor_id;sensor_type;location;lat;lon;timestamp;P1;durP1;ratioP1;P2;durP2;ratioP2
17890;SDS011;9071;48.220;14.480;2023-08-17T00:04:51;24.23;;;20.88;;
17890;SDS011;9071;48.220;14.480;2023-08-17T00:09:54;27.48;;;22.77;;
17890;SDS011;9071;48.220;14.480;2023-08-17T00:14:56;24.73;;;22.02;;
17890;SDS011;9071;48.220;14.480;2023-08-17T00:19:58;23.05;;;20.60;;
17890;SDS011;9071;48.220;14.480;2023-08-17T00:25:02;23.52;;;20.10;;
17890;SDS011;9071;48.220;14.480;2023-08-17T00:30:05;25.38;;;21.52;;
17890;SDS011;9071;48.220;14.480;2023-08-17T00:35:08;28.73;;;22.58;;
17890;SDS011;9071;48.220;14.480;2023-08-17T00:40:11;27.08;;;21.85;;
17890;SDS011;9071;48.220;14.480;2023-08-17T00:45:14;26.23;;;22.42;;
17890;SDS011;9071;48.220;14.480;2023-08-17T00:50:16;26.55;;;20.67;;
17890;SDS011;9071;48.220;14.480;2023-08-17T00:55:19;23.38;;;20.92;;
17890;SDS011;9071;48.220;14.480;2023-08-17T01:00:22;26.92;;;22.05;;
17890;SDS011;9071;48.220;14.480;2023-08-17T01:05:26;28.00;;;22.92;;
17890;SDS011;9071;48.220;14.480;2023-08-17T01:10:31;27.70;;;21.08;;
17890;SDS011;9071;48.220;14.480;2023-08-17T01:15:40;31.50;;;23.10;;
17890;SDS011;9071;48.220;14.480;2023-08-17T01:20:46;29.67;;;22.17;;
17890;SDS011;9071;48.220;14.480;2023-08-17T01:25:50;26.25;;;21.63;;
17890;SDS011;9071;48.220;14.480;2023-08-17T01:30:55;23.33;;;19.77;;
17890;SDS011;9071;48.220;14.480;2023-08-17T01:36:01;26.35;;;20.75;;
17890;SDS011;9071;48.220;14.480;2023-08-17T01:41:10;21.25;;;18.95;;
17890;SDS011;9071;48.220;14.480;2023-08-17T01:46:16;24.63;;;20.30;;
17890;SDS011;9071;48.220;14.480;2023-08-17T01:51:19;25.73;;;20.85;;
17890;SDS011;9071;48.220;14.480;2023-08-17T01:56:22;27.58;;;21.67;;
17890;SDS011;9071;48.220;14.480;2023-08-17T02:01:24;25.60;;;21.23;;
17890;SDS011;9071;48.220;14.480;2023-08-17T02:06:27;25.02;;;21.20;;
17890;SDS011;9071;48.220;14.480;2023-08-17T02:11:30;28.13;;;23.02;;
17890;SDS011;9071;48.220;14.480;2023-08-17T02:16:32;32.97;;;25.17;;
17890;SDS011;9071;48.220;14.480;2023-08-17T02:21:35;32.78;;;26.60;;
17890;SDS011;9071;48.220;14.480;2023-08-17T02:26:38;34.22;;;25.50;;
17890;SDS011;9071;48.220;14.480;2023-08-17T02:31:40;27.33;;;24.40;;
17890;SDS011;9071;48.220;14.480;2023-08-17T02:36:42;28.85;;;24.00;;
17890;SDS011;9071;48.220;14.480;2023-08-17T02:41:46;28.80;;;23.40;;
17890;SDS011;9071;48.220;14.480;2023-08-17T02:46:49;28.50;;;23.20;;
17890;SDS011;9071;48.220;14.480;2023-08-17T02:51:51;28.98;;;22.80;;
17890;SDS011;9071;48.220;14.480;2023-08-17T02:56:55;28.10;;;23.00;;
17890;SDS011;9071;48.220;14.480;2023-08-17T03:01:57;27.58;;;21.65;;
17890;SDS011;9071;48.220;14.480;2023-08-17T03:06:59;27.80;;;21.83;;
17890;SDS011;9071;48.220;14.480;2023-08-17T03:12:03;26.80;;;21.00;;
17890;SDS011;9071;48.220;14.480;2023-08-17T03:17:05;26.42;;;21.02;;
17890;SDS011;9071;48.220;14.480;2023-08-17T03:22:08;27.15;;;21.10;;
17890;SDS011;9071;48.220;14.480;2023-08-17T03:27:11;25.77;;;20.20;;
17890;SDS011;9071;48.220;14.480;2023-08-17T03:32:13;23.75;;;19.98;;
17890;SDS011;9071;48.220;14.480;2023-08-17T03:37:15;22.95;;;18.50;;
17890;SDS011;9071;48.220;14.480;2023-08-17T03:42:19;24.73;;;19.20;;
17890;SDS011;9071;48.220;14.480;2023-08-17T03:47:21;26.25;;;20.23;;
17890;SDS011;9071;48.220;14.480;2023-08-17T03:52:23;23.67;;;19.15;;
17890;SDS011;9071;48.220;14.480;2023-08-17T03:57:26;21.80;;;18.58;;
17890;SDS011;9071;48.220;14.480;2023-08-17T04:02:29;22.45;;;18.73;;
17890;SDS011;9071;48.220;14.480;2023-08-17T04:07:31;25.13;;;18.33;;
17890;SDS011;9071;48.220;14.480;2023-08-17T04:12:34;23.80;;;19.23;;
17890;SDS011;9071;48.220;14.480;2023-08-17T04:17:36;23.73;;;18.08;;
17890;SDS011;9071;48.220;14.480;2023-08-17T04:22:38;23.85;;;18.65;;
17890;SDS011;9071;48.220;14.480;2023-08-17T04:27:42;21.52;;;17.98;;
17890;SDS011;9071;48.220;14.480;2023-08-17T04:32:44;19.80;;;16.65;;
17890;SDS011;9071;48.220;14.480;2023-08-17T04:37:50;22.00;;;17.35;;
17890;SDS011;9071;48.220;14.480;2023-08-17T04:42:54;24.10;;;17.13;;
17890;SDS011;9071;48.220;14.480;2023-08-17T04:47:56;19.30;;;16.45;;
17890;SDS011;9071;48.220;14.480;2023-08-17T04:52:58;23.17;;;18.10;;
17890;SDS011;9071;48.220;14.480;2023-08-17T04:58:02;22.27;;;17.45;;
17890;SDS011;9071;48.220;14.480;2023-08-17T05:03:04;25.10;;;17.55;;
17890;SDS011;9071;48.220;14.480;2023-08-17T05:08:06;22.15;;;18.00;;
17890;SDS011;9071;48.220;14.480;2023-08-17T05:13:10;20.85;;;16.33;;
17890;SDS011;9071;48.220;14.480;2023-08-17T05:18:12;20.65;;;16.45;;
17890;SDS011;9071;48.220;14.480;2023-08-17T05:23:14;16.27;;;14.15;;
17890;SDS011;9071;48.220;14.480;2023-08-17T05:28:18;17.83;;;12.88;;
17890;SDS011;9071;48.220;14.480;2023-08-17T05:33:20;15.13;;;12.18;;
17890;SDS011;9071;48.220;14.480;2023-08-17T05:38:22;14.30;;;11.77;;
17890;SDS011;9071;48.220;14.480;2023-08-17T05:43:25;31.98;;;11.52;;
17890;SDS011;9071;48.220;14.480;2023-08-17T05:48:27;49.25;;;12.05;;
17890;SDS011;9071;48.220;14.480;2023-08-17T05:53:29;25.90;;;9.52;;
17890;SDS011;9071;48.220;14.480;2023-08-17T05:58:33;25.00;;;9.75;;
17890;SDS011;9071;48.220;14.480;2023-08-17T06:03:35;12.90;;;8.20;;
17890;SDS011;9071;48.220;14.480;2023-08-17T06:08:38;28.45;;;9.20;;
17890;SDS011;9071;48.220;14.480;2023-08-17T06:13:41;18.63;;;8.57;;
17890;SDS011;9071;48.220;14.480;2023-08-17T06:18:43;28.00;;;9.38;;
17890;SDS011;9071;48.220;14.480;2023-08-17T06:23:46;11.38;;;8.90;;
17890;SDS011;9071;48.220;14.480;2023-08-17T06:28:49;9.65;;;7.20;;
17890;SDS011;9071;48.220;14.480;2023-08-17T06:33:51;9.07;;;7.63;;
17890;SDS011;9071;48.220;14.480;2023-08-17T06:38:53;8.75;;;7.88;;
17890;SDS011;9071;48.220;14.480;2023-08-17T06:43:57;11.85;;;7.90;;
17890;SDS011;9071;48.220;14.480;2023-08-17T06:48:59;9.80;;;8.30;;
17890;SDS011;9071;48.220;14.480;2023-08-17T06:54:01;10.25;;;8.15;;
17890;SDS011;9071;48.220;14.480;2023-08-17T06:59:04;9.30;;;7.28;;
17890;SDS011;9071;48.220;14.480;2023-08-17T07:04:07;7.97;;;7.25;;
17890;SDS011;9071;48.220;14.480;2023-08-17T07:09:09;8.60;;;7.22;;
17890;SDS011;9071;48.220;14.480;2023-08-17T07:14:14;7.97;;;7.00;;
17890;SDS011;9071;48.220;14.480;2023-08-17T07:19:16;8.43;;;7.25;;
17890;SDS011;9071;48.220;14.480;2023-08-17T07:24:18;9.88;;;7.47;;
17890;SDS011;9071;48.220;14.480;2023-08-17T07:29:21;9.07;;;7.72;;
17890;SDS011;9071;48.220;14.480;2023-08-17T07:34:23;8.73;;;7.10;;
17890;SDS011;9071;48.220;14.480;2023-08-17T07:39:25;11.30;;;7.80;;
17890;SDS011;9071;48.220;14.480;2023-08-17T07:44:29;7.35;;;6.65;;
17890;SDS011;9071;48.220;14.480;2023-08-17T07:49:31;9.00;;;7.25;;
17890;SDS011;9071;48.220;14.480;2023-08-17T07:54:33;11.27;;;6.97;;
17890;SDS011;9071;48.220;14.480;2023-08-17T07:59:37;10.18;;;7.82;;
17890;SDS011;9071;48.220;14.480;2023-08-17T08:04:39;9.88;;;7.32;;
17890;SDS011;9071;48.220;14.480;2023-08-17T08:09:41;9.60;;;7.03;;
17890;SDS011;9071;48.220;14.480;2023-08-17T08:14:44;10.10;;;7.70;;
17890;SDS011;9071;48.220;14.480;2023-08-17T08:19:46;10.05;;;7.38;;
17890;SDS011;9071;48.220;14.480;2023-08-17T08:24:51;8.30;;;7.50;;
17890;SDS011;9071;48.220;14.480;2023-08-17T08:29:54;9.65;;;8.45;;
17890;SDS011;9071;48.220;14.480;2023-08-17T08:34:56;11.25;;;8.35;;
17890;SDS011;9071;48.220;14.480;2023-08-17T08:39:58;11.35;;;8.07;;
17890;SDS011;9071;48.220;14.480;2023-08-17T08:45:02;10.70;;;8.52;;
17890;SDS011;9071;48.220;14.480;2023-08-17T08:50:05;12.02;;;8.70;;
17890;SDS011;9071;48.220;14.480;2023-08-17T08:55:10;10.57;;;9.52;;
17890;SDS011;9071;48.220;14.480;2023-08-17T09:00:15;11.05;;;9.57;;
17890;SDS011;9071;48.220;14.480;2023-08-17T09:05:18;12.63;;;10.02;;
17890;SDS011;9071;48.220;14.480;2023-08-17T09:10:21;11.93;;;9.38;;
17890;SDS011;9071;48.220;14.480;2023-08-17T09:15:25;15.57;;;9.20;;
17890;SDS011;9071;48.220;14.480;2023-08-17T09:20:37;10.43;;;9.02;;
17890;SDS011;9071;48.220;14.480;2023-08-17T09:25:40;13.43;;;9.38;;
17890;SDS011;9071;48.220;14.480;2023-08-17T09:30:50;11.35;;;9.10;;
17890;SDS011;9071;48.220;14.480;2023-08-17T09:35:54;14.45;;;8.85;;
17890;SDS011;9071;48.220;14.480;2023-08-17T09:40:57;12.32;;;9.63;;
17890;SDS011;9071;48.220;14.480;2023-08-17T09:46:01;12.55;;;9.65;;
17890;SDS011;9071;48.220;14.480;2023-08-17T09:51:03;9.77;;;8.82;;
17890;SDS011;9071;48.220;14.480;2023-08-17T09:56:07;10.43;;;9.40;;
17890;SDS011;9071;48.220;14.480;2023-08-17T10:01:12;15.32;;;9.10;;
17890;SDS011;9071;48.220;14.480;2023-08-17T10:06:17;16.15;;;9.35;;
17890;SDS011;9071;48.220;14.480;2023-08-17T10:11:25;11.73;;;8.20;;
17890;SDS011;9071;48.220;14.480;2023-08-17T10:16:35;12.02;;;8.10;;
17890;SDS011;9071;48.220;14.480;2023-08-17T10:21:43;11.15;;;8.60;;
17890;SDS011;9071;48.220;14.480;2023-08-17T10:26:51;10.65;;;7.90;;
17890;SDS011;9071;48.220;14.480;2023-08-17T10:31:55;13.38;;;8.60;;
17890;SDS011;9071;48.220;14.480;2023-08-17T10:36:58;10.30;;;7.80;;
17890;SDS011;9071;48.220;14.480;2023-08-17T10:42:01;8.93;;;7.45;;
17890;SDS011;9071;48.220;14.480;2023-08-17T10:52:29;10.15;;;8.02;;
17890;SDS011;9071;48.220;14.480;2023-08-17T10:57:33;9.35;;;7.40;;
17890;SDS011;9071;48.220;14.480;2023-08-17T11:02:38;9.38;;;7.63;;
17890;SDS011;9071;48.220;14.480;2023-08-17T11:07:40;9.73;;;7.70;;
17890;SDS011;9071;48.220;14.480;2023-08-17T11:12:43;11.25;;;7.97;;
17890;SDS011;9071;48.220;14.480;2023-08-17T11:17:47;9.60;;;6.97;;
17890;SDS011;9071;48.220;14.480;2023-08-17T11:22:49;9.77;;;7.20;;
17890;SDS011;9071;48.220;14.480;2023-08-17T11:27:51;8.45;;;7.07;;
17890;SDS011;9071;48.220;14.480;2023-08-17T11:32:56;8.70;;;7.18;;
17890;SDS011;9071;48.220;14.480;2023-08-17T11:37:58;10.63;;;7.22;;
17890;SDS011;9071;48.220;14.480;2023-08-17T11:43:00;8.45;;;7.40;;
17890;SDS011;9071;48.220;14.480;2023-08-17T11:48:04;9.82;;;7.38;;
17890;SDS011;9071;48.220;14.480;2023-08-17T11:53:07;11.27;;;7.50;;
17890;SDS011;9071;48.220;14.480;2023-08-17T11:58:09;7.80;;;6.57;;
17890;SDS011;9071;48.220;14.480;2023-08-17T12:03:16;10.45;;;6.53;;
17890;SDS011;9071;48.220;14.480;2023-08-17T12:08:19;9.48;;;6.50;;
17890;SDS011;9071;48.220;14.480;2023-08-17T12:13:28;6.45;;;5.85;;
17890;SDS011;9071;48.220;14.480;2023-08-17T12:18:35;6.82;;;5.93;;
17890;SDS011;9071;48.220;14.480;2023-08-17T12:23:37;6.97;;;6.07;;
17890;SDS011;9071;48.220;14.480;2023-08-17T12:28:40;6.07;;;5.53;;
17890;SDS011;9071;48.220;14.480;2023-08-17T12:33:44;6.20;;;5.60;;
17890;SDS011;9071;48.220;14.480;2023-08-17T12:38:46;7.47;;;5.95;;
17890;SDS011;9071;48.220;14.480;2023-08-17T12:43:48;6.80;;;5.65;;
17890;SDS011;9071;48.220;14.480;2023-08-17T12:48:52;6.60;;;4.97;;
17890;SDS011;9071;48.220;14.480;2023-08-17T12:53:54;7.28;;;5.05;;
17890;SDS011;9071;48.220;14.480;2023-08-17T12:58:56;6.40;;;4.82;;
17890;SDS011;9071;48.220;14.480;2023-08-17T13:03:59;4.97;;;4.53;;
17890;SDS011;9071;48.220;14.480;2023-08-17T13:09:02;4.38;;;3.80;;
17890;SDS011;9071;48.220;14.480;2023-08-17T13:14:04;4.93;;;4.45;;
17890;SDS011;9071;48.220;14.480;2023-08-17T13:19:07;4.30;;;3.90;;
17890;SDS011;9071;48.220;14.480;2023-08-17T13:24:09;4.10;;;3.70;;
17890;SDS011;9071;48.220;14.480;2023-08-17T13:29:11;4.80;;;4.40;;
17890;SDS011;9071;48.220;14.480;2023-08-17T13:34:15;8.25;;;4.03;;
17890;SDS011;9071;48.220;14.480;2023-08-17T13:39:17;5.13;;;4.07;;
17890;SDS011;9071;48.220;14.480;2023-08-17T13:44:19;6.30;;;3.90;;
17890;SDS011;9071;48.220;14.480;2023-08-17T13:49:22;4.75;;;4.25;;
17890;SDS011;9071;48.220;14.480;2023-08-17T13:54:25;3.90;;;3.40;;
17890;SDS011;9071;48.220;14.480;2023-08-17T13:59:27;3.80;;;3.50;;
17890;SDS011;9071;48.220;14.480;2023-08-17T14:04:31;4.35;;;3.90;;
17890;SDS011;9071;48.220;14.480;2023-08-17T14:09:33;3.80;;;3.50;;
17890;SDS011;9071;48.220;14.480;2023-08-17T14:14:35;4.63;;;3.92;;
17890;SDS011;9071;48.220;14.480;2023-08-17T14:19:38;4.30;;;3.83;;
17890;SDS011;9071;48.220;14.480;2023-08-17T14:24:42;4.80;;;3.50;;
17890;SDS011;9071;48.220;14.480;2023-08-17T14:29:45;5.10;;;3.80;;
17890;SDS011;9071;48.220;14.480;2023-08-17T14:34:48;4.60;;;4.18;;
17890;SDS011;9071;48.220;14.480;2023-08-17T14:39:50;5.45;;;4.13;;
17890;SDS011;9071;48.220;14.480;2023-08-17T14:44:52;4.18;;;3.78;;
17890;SDS011;9071;48.220;14.480;2023-08-17T14:49:56;10.23;;;4.10;;
17890;SDS011;9071;48.220;14.480;2023-08-17T14:54:58;6.03;;;3.55;;
17890;SDS011;9071;48.220;14.480;2023-08-17T15:00:00;4.72;;;3.75;;
17890;SDS011;9071;48.220;14.480;2023-08-17T15:05:04;4.30;;;3.90;;
17890;SDS011;9071;48.220;14.480;2023-08-17T15:10:07;4.38;;;3.97;;
17890;SDS011;9071;48.220;14.480;2023-08-17T15:15:10;6.05;;;4.40;;
17890;SDS011;9071;48.220;14.480;2023-08-17T15:20:13;7.65;;;4.60;;
17890;SDS011;9071;48.220;14.480;2023-08-17T15:25:15;9.05;;;4.43;;
17890;SDS011;9071;48.220;14.480;2023-08-17T15:30:17;5.28;;;4.13;;
17890;SDS011;9071;48.220;14.480;2023-08-17T15:35:21;4.63;;;4.20;;
17890;SDS011;9071;48.220;14.480;2023-08-17T15:40:23;4.85;;;4.03;;
17890;SDS011;9071;48.220;14.480;2023-08-17T15:45:25;5.03;;;4.55;;
17890;SDS011;9071;48.220;14.480;2023-08-17T15:50:29;4.22;;;3.78;;
17890;SDS011;9071;48.220;14.480;2023-08-17T15:55:32;6.95;;;3.97;;
17890;SDS011;9071;48.220;14.480;2023-08-17T16:00:34;4.88;;;4.30;;
17890;SDS011;9071;48.220;14.480;2023-08-17T16:05:37;4.65;;;4.05;;
17890;SDS011;9071;48.220;14.480;2023-08-17T16:10:39;8.05;;;4.20;;
17890;SDS011;9071;48.220;14.480;2023-08-17T16:15:41;7.15;;;3.95;;
17890;SDS011;9071;48.220;14.480;2023-08-17T16:20:44;5.47;;;4.63;;
17890;SDS011;9071;48.220;14.480;2023-08-17T16:25:46;6.38;;;4.35;;
17890;SDS011;9071;48.220;14.480;2023-08-17T16:30:48;5.05;;;4.18;;
17890;SDS011;9071;48.220;14.480;2023-08-17T16:35:52;7.43;;;4.53;;
17890;SDS011;9071;48.220;14.480;2023-08-17T16:40:54;5.60;;;4.65;;
17890;SDS011;9071;48.220;14.480;2023-08-17T16:45:56;6.93;;;4.85;;
17890;SDS011;9071;48.220;14.480;2023-08-17T16:50:59;6.60;;;4.55;;
17890;SDS011;9071;48.220;14.480;2023-08-17T16:56:01;6.60;;;4.45;;
17890;SDS011;9071;48.220;14.480;2023-08-17T17:01:04;5.25;;;4.75;;
17890;SDS011;9071;48.220;14.480;2023-08-17T17:06:08;7.13;;;5.00;;
17890;SDS011;9071;48.220;14.480;2023-08-17T17:11:10;5.63;;;4.88;;
17890;SDS011;9071;48.220;14.480;2023-08-17T17:16:12;6.32;;;4.78;;
17890;SDS011;9071;48.220;14.480;2023-08-17T17:21:15;5.90;;;4.53;;
17890;SDS011;9071;48.220;14.480;2023-08-17T17:26:17;6.32;;;5.07;;
17890;SDS011;9071;48.220;14.480;2023-08-17T17:31:20;6.07;;;4.80;;
17890;SDS011;9071;48.220;14.480;2023-08-17T17:36:24;6.30;;;5.03;;
17890;SDS011;9071;48.220;14.480;2023-08-17T17:41:26;5.30;;;4.80;;
17890;SDS011;9071;48.220;14.480;2023-08-17T17:46:28;6.63;;;4.80;;
17890;SDS011;9071;48.220;14.480;2023-08-17T17:51:31;7.18;;;5.07;;
17890;SDS011;9071;48.220;14.480;2023-08-17T17:56:36;6.88;;;5.10;;
17890;SDS011;9071;48.220;14.480;2023-08-17T18:01:39;8.07;;;5.32;;
17890;SDS011;9071;48.220;14.480;2023-08-17T18:06:43;8.27;;;5.32;;
17890;SDS011;9071;48.220;14.480;2023-08-17T18:11:45;13.68;;;6.40;;
17890;SDS011;9071;48.220;14.480;2023-08-17T18:16:47;9.38;;;5.47;;
17890;SDS011;9071;48.220;14.480;2023-08-17T18:21:50;7.00;;;6.30;;
17890;SDS011;9071;48.220;14.480;2023-08-17T18:26:52;12.23;;;6.40;;
17890;SDS011;9071;48.220;14.480;2023-08-17T18:31:55;8.98;;;6.13;;
17890;SDS011;9071;48.220;14.480;2023-08-17T18:36:58;9.65;;;6.82;;
17890;SDS011;9071;48.220;14.480;2023-08-17T18:42:00;9.90;;;6.13;;
17890;SDS011;9071;48.220;14.480;2023-08-17T18:47:03;7.60;;;6.53;;
17890;SDS011;9071;48.220;14.480;2023-08-17T18:52:07;9.48;;;6.22;;
17890;SDS011;9071;48.220;14.480;2023-08-17T18:57:09;7.82;;;6.63;;
17890;SDS011;9071;48.220;14.480;2023-08-17T19:02:11;9.27;;;7.20;;
17890;SDS011;9071;48.220;14.480;2023-08-17T19:07:15;7.90;;;7.00;;
17890;SDS011;9071;48.220;14.480;2023-08-17T19:12:17;8.30;;;7.00;;
17890;SDS011;9071;48.220;14.480;2023-08-17T19:17:19;8.48;;;6.60;;
17890;SDS011;9071;48.220;14.480;2023-08-17T19:22:23;7.55;;;6.82;;
17890;SDS011;9071;48.220;14.480;2023-08-17T19:27:25;10.23;;;7.22;;
17890;SDS011;9071;48.220;14.480;2023-08-17T19:32:27;9.55;;;7.65;;
17890;SDS011;9071;48.220;14.480;2023-08-17T19:37:31;9.25;;;7.35;;
17890;SDS011;9071;48.220;14.480;2023-08-17T19:42:33;10.90;;;7.20;;
17890;SDS011;9071;48.220;14.480;2023-08-17T19:47:35;10.68;;;7.85;;
17890;SDS011;9071;48.220;14.480;2023-08-17T19:52:38;10.45;;;8.38;;
17890;SDS011;9071;48.220;14.480;2023-08-17T19:57:41;12.02;;;8.82;;
17890;SDS011;9071;48.220;14.480;2023-08-17T20:02:42;10.00;;;7.85;;
17890;SDS011;9071;48.220;14.480;2023-08-17T20:07:47;10.40;;;8.73;;
17890;SDS011;9071;48.220;14.480;2023-08-17T20:12:49;11.30;;;9.15;;
17890;SDS011;9071;48.220;14.480;2023-08-17T20:17:51;10.10;;;9.10;;
17890;SDS011;9071;48.220;14.480;2023-08-17T20:22:55;10.50;;;9.20;;
17890;SDS011;9071;48.220;14.480;2023-08-17T20:27:57;14.57;;;9.75;;
17890;SDS011;9071;48.220;14.480;2023-08-17T20:33:01;11.23;;;9.20;;
17890;SDS011;9071;48.220;14.480;2023-08-17T20:38:05;13.88;;;9.30;;
17890;SDS011;9071;48.220;14.480;2023-08-17T20:43:07;13.30;;;9.55;;
17890;SDS011;9071;48.220;14.480;2023-08-17T20:48:09;14.18;;;10.10;;
17890;SDS011;9071;48.220;14.480;2023-08-17T20:53:13;13.30;;;9.50;;
17890;SDS011;9071;48.220;14.480;2023-08-17T20:58:16;11.13;;;9.00;;
17890;SDS011;9071;48.220;14.480;2023-08-17T21:03:18;11.75;;;9.23;;
17890;SDS011;9071;48.220;14.480;2023-08-17T21:08:21;13.82;;;10.10;;
17890;SDS011;9071;48.220;14.480;2023-08-17T21:13:23;13.43;;;9.60;;
17890;SDS011;9071;48.220;14.480;2023-08-17T21:18:26;14.27;;;10.07;;
17890;SDS011;9071;48.220;14.480;2023-08-17T21:23:29;12.32;;;10.95;;
17890;SDS011;9071;48.220;14.480;2023-08-17T21:28:32;11.90;;;10.63;;
17890;SDS011;9071;48.220;14.480;2023-08-17T21:33:34;14.18;;;11.27;;
17890;SDS011;9071;48.220;14.480;2023-08-17T21:38:38;14.95;;;11.65;;
17890;SDS011;9071;48.220;14.480;2023-08-17T21:43:40;13.02;;;11.30;;
17890;SDS011;9071;48.220;14.480;2023-08-17T21:48:42;15.60;;;11.77;;
17890;SDS011;9071;48.220;14.480;2023-08-17T21:53:45;12.73;;;11.43;;
17890;SDS011;9071;48.220;14.480;2023-08-17T21:58:47;13.80;;;11.20;;
17890;SDS011;9071;48.220;14.480;2023-08-17T22:03:49;14.20;;;11.50;;
17890;SDS011;9071;48.220;14.480;2023-08-17T22:08:53;13.00;;;11.60;;
17890;SDS011;9071;48.220;14.480;2023-08-17T22:13:55;12.02;;;10.77;;
17890;SDS011;9071;48.220;14.480;2023-08-17T22:18:57;13.02;;;11.60;;
17890;SDS011;9071;48.220;14.480;2023-08-17T22:24:00;12.57;;;10.98;;
17890;SDS011;9071;48.220;14.480;2023-08-17T22:29:03;15.45;;;11.95;;
17890;SDS011;9071;48.220;14.480;2023-08-17T22:34:05;18.08;;;12.93;;
17890;SDS011;9071;48.220;14.480;2023-08-17T22:39:08;20.17;;;13.23;;
17890;SDS011;9071;48.220;14.480;2023-08-17T22:44:10;18.60;;;12.55;;
17890;SDS011;9071;48.220;14.480;2023-08-17T22:49:13;13.65;;;12.00;;
17890;SDS011;9071;48.220;14.480;2023-08-17T22:54:16;15.88;;;12.73;;
17890;SDS011;9071;48.220;14.480;2023-08-17T22:59:18;15.52;;;12.50;;
17890;SDS011;9071;48.220;14.480;2023-08-17T23:04:20;14.82;;;12.43;;
17890;SDS011;9071;48.220;14.480;2023-08-17T23:09:24;15.77;;;12.35;;
17890;SDS011;9071;48.220;14.480;2023-08-17T23:14:27;15.60;;;11.93;;
17890;SDS011;9071;48.220;14.480;2023-08-17T23:19:29;16.15;;;13.63;;
17890;SDS011;9071;48.220;14.480;2023-08-17T23:24:32;13.57;;;12.18;;
17890;SDS011;9071;48.220;14.480;2023-08-17T23:29:36;13.88;;;11.60;;
17890;SDS011;9071;48.220;14.480;2023-08-17T23:34:39;12.65;;;10.70;;
17890;SDS011;9071;48.220;14.480;2023-08-17T23:39:43;13.15;;;11.43;;
17890;SDS011;9071;48.220;14.480;2023-08-17T23:44:45;13.27;;;10.45;;
17890;SDS011;9071;48.220;14.480;2023-08-17T23:49:47;14.48;;;10.70;;
17890;SDS011;9071;48.220;14.480;2023-08-17T23:54:50;13.25;;;10.30;;
17890;SDS011;9071;48.220;14.480;2023-08-17T23:59:52;14.63;;;10.80;;
